sensor_id;sensor_type;location;lat;lon;timestamp;P1;durP1;ratioP1;P2;durP2;ratioP2
2650;SDS011;1335;48.180;16.342;2023-06-22T00:00:50;8.20;;;5.87;;
2650;SDS011;1335;48.180;16.342;2023-06-22T00:03:17;6.33;;;5.07;;
2650;SDS011;1335;48.180;16.342;2023-06-22T00:05:44;8.80;;;5.30;;
2650;SDS011;1335;48.180;16.342;2023-06-22T00:08:12;7.53;;;5.00;;
2650;SDS011;1335;48.180;16.342;2023-06-22T00:10:39;11.27;;;5.27;;
2650;SDS011;1335;48.180;16.342;2023-06-22T00:13:07;7.00;;;5.23;;
2650;SDS011;1335;48.180;16.342;2023-06-22T00:15:35;7.03;;;4.90;;
2650;SDS011;1335;48.180;16.342;2023-06-22T00:18:04;7.60;;;5.03;;
2650;SDS011;1335;48.180;16.342;2023-06-22T00:20:31;5.87;;;4.50;;
2650;SDS011;1335;48.180;16.342;2023-06-22T00:23:01;7.60;;;5.13;;
2650;SDS011;1335;48.180;16.342;2023-06-22T00:25:31;8.60;;;5.20;;
2650;SDS011;1335;48.180;16.342;2023-06-22T00:27:58;7.87;;;4.90;;
2650;SDS011;1335;48.180;16.342;2023-06-22T00:30:26;13.10;;;5.70;;
2650;SDS011;1335;48.180;16.342;2023-06-22T00:32:53;6.27;;;5.13;;
2650;SDS011;1335;48.180;16.342;2023-06-22T00:35:22;5.90;;;5.10;;
2650;SDS011;1335;48.180;16.342;2023-06-22T00:37:54;5.77;;;4.77;;
2650;SDS011;1335;48.180;16.342;2023-06-22T00:40:26;7.40;;;4.93;;
2650;SDS011;1335;48.180;16.342;2023-06-22T00:42:53;5.90;;;4.80;;
2650;SDS011;1335;48.180;16.342;2023-06-22T00:45:21;10.10;;;4.83;;
2650;SDS011;1335;48.180;16.342;2023-06-22T00:47:49;12.30;;;5.63;;
2650;SDS011;1335;48.180;16.342;2023-06-22T00:50:17;11.17;;;5.57;;
2650;SDS011;1335;48.180;16.342;2023-06-22T00:52:47;9.40;;;4.50;;
2650;SDS011;1335;48.180;16.342;2023-06-22T00:55:15;10.03;;;4.93;;
2650;SDS011;1335;48.180;16.342;2023-06-22T00:57:43;7.63;;;4.80;;
2650;SDS011;1335;48.180;16.342;2023-06-22T01:00:11;7.73;;;4.57;;
2650;SDS011;1335;48.180;16.342;2023-06-22T01:02:45;7.60;;;5.00;;
2650;SDS011;1335;48.180;16.342;2023-06-22T01:05:12;5.83;;;4.47;;
2650;SDS011;1335;48.180;16.342;2023-06-22T01:07:41;5.33;;;4.60;;
2650;SDS011;1335;48.180;16.342;2023-06-22T01:10:13;6.77;;;4.60;;
2650;SDS011;1335;48.180;16.342;2023-06-22T01:12:42;7.83;;;4.83;;
2650;SDS011;1335;48.180;16.342;2023-06-22T01:15:11;6.83;;;5.10;;
2650;SDS011;1335;48.180;16.342;2023-06-22T01:17:40;5.37;;;4.70;;
2650;SDS011;1335;48.180;16.342;2023-06-22T01:20:08;5.47;;;4.93;;
2650;SDS011;1335;48.180;16.342;2023-06-22T01:22:40;4.77;;;4.27;;
2650;SDS011;1335;48.180;16.342;2023-06-22T01:25:10;9.37;;;5.20;;
2650;SDS011;1335;48.180;16.342;2023-06-22T01:27:46;4.53;;;4.13;;
2650;SDS011;1335;48.180;16.342;2023-06-22T01:30:31;4.50;;;4.00;;
2650;SDS011;1335;48.180;16.342;2023-06-22T01:33:01;11.40;;;4.60;;
2650;SDS011;1335;48.180;16.342;2023-06-22T01:35:30;7.07;;;4.80;;
2650;SDS011;1335;48.180;16.342;2023-06-22T01:37:57;7.20;;;4.70;;
2650;SDS011;1335;48.180;16.342;2023-06-22T01:40:25;8.63;;;4.77;;
2650;SDS011;1335;48.180;16.342;2023-06-22T01:42:52;5.53;;;4.50;;
2650;SDS011;1335;48.180;16.342;2023-06-22T01:45:20;7.30;;;4.73;;
2650;SDS011;1335;48.180;16.342;2023-06-22T01:47:49;9.53;;;4.53;;
2650;SDS011;1335;48.180;16.342;2023-06-22T01:50:17;6.10;;;5.17;;
2650;SDS011;1335;48.180;16.342;2023-06-22T01:52:44;7.17;;;4.73;;
2650;SDS011;1335;48.180;16.342;2023-06-22T01:55:11;5.90;;;4.83;;
2650;SDS011;1335;48.180;16.342;2023-06-22T01:57:38;5.33;;;4.57;;
2650;SDS011;1335;48.180;16.342;2023-06-22T02:00:07;8.80;;;4.77;;
2650;SDS011;1335;48.180;16.342;2023-06-22T02:02:38;8.60;;;5.47;;
2650;SDS011;1335;48.180;16.342;2023-06-22T02:05:08;6.37;;;4.73;;
2650;SDS011;1335;48.180;16.342;2023-06-22T02:07:37;7.97;;;4.97;;
2650;SDS011;1335;48.180;16.342;2023-06-22T02:10:06;7.60;;;4.50;;
2650;SDS011;1335;48.180;16.342;2023-06-22T02:12:34;5.90;;;4.80;;
2650;SDS011;1335;48.180;16.342;2023-06-22T02:15:02;7.30;;;5.13;;
2650;SDS011;1335;48.180;16.342;2023-06-22T02:17:29;7.57;;;5.10;;
2650;SDS011;1335;48.180;16.342;2023-06-22T02:19:58;7.50;;;5.67;;
2650;SDS011;1335;48.180;16.342;2023-06-22T02:22:26;5.30;;;4.80;;
2650;SDS011;1335;48.180;16.342;2023-06-22T02:24:54;12.50;;;5.13;;
2650;SDS011;1335;48.180;16.342;2023-06-22T02:27:21;9.47;;;4.90;;
2650;SDS011;1335;48.180;16.342;2023-06-22T02:29:48;6.90;;;5.70;;
2650;SDS011;1335;48.180;16.342;2023-06-22T02:32:15;8.10;;;5.77;;
2650;SDS011;1335;48.180;16.342;2023-06-22T02:34:43;6.90;;;4.63;;
2650;SDS011;1335;48.180;16.342;2023-06-22T02:37:12;6.07;;;4.50;;
2650;SDS011;1335;48.180;16.342;2023-06-22T02:39:42;5.13;;;4.60;;
2650;SDS011;1335;48.180;16.342;2023-06-22T02:42:09;6.10;;;4.73;;
2650;SDS011;1335;48.180;16.342;2023-06-22T02:44:36;5.77;;;5.17;;
2650;SDS011;1335;48.180;16.342;2023-06-22T02:47:04;6.10;;;5.17;;
2650;SDS011;1335;48.180;16.342;2023-06-22T02:49:31;6.47;;;4.67;;
2650;SDS011;1335;48.180;16.342;2023-06-22T02:51:59;7.07;;;4.87;;
2650;SDS011;1335;48.180;16.342;2023-06-22T02:54:26;6.93;;;5.10;;
2650;SDS011;1335;48.180;16.342;2023-06-22T02:56:54;6.87;;;4.67;;
2650;SDS011;1335;48.180;16.342;2023-06-22T02:59:22;7.30;;;5.10;;
2650;SDS011;1335;48.180;16.342;2023-06-22T03:01:49;6.07;;;4.13;;
2650;SDS011;1335;48.180;16.342;2023-06-22T03:04:17;5.40;;;4.87;;
2650;SDS011;1335;48.180;16.342;2023-06-22T03:06:45;6.30;;;4.70;;
2650;SDS011;1335;48.180;16.342;2023-06-22T03:09:16;6.27;;;5.30;;
2650;SDS011;1335;48.180;16.342;2023-06-22T03:11:43;6.00;;;5.17;;
2650;SDS011;1335;48.180;16.342;2023-06-22T03:14:12;4.93;;;4.43;;
2650;SDS011;1335;48.180;16.342;2023-06-22T03:16:39;6.80;;;5.70;;
2650;SDS011;1335;48.180;16.342;2023-06-22T03:19:06;7.40;;;5.23;;
2650;SDS011;1335;48.180;16.342;2023-06-22T03:21:34;11.07;;;5.37;;
2650;SDS011;1335;48.180;16.342;2023-06-22T03:24:02;7.00;;;4.63;;
2650;SDS011;1335;48.180;16.342;2023-06-22T03:26:30;6.50;;;5.30;;
2650;SDS011;1335;48.180;16.342;2023-06-22T03:28:57;7.40;;;5.03;;
2650;SDS011;1335;48.180;16.342;2023-06-22T03:31:26;9.93;;;5.77;;
2650;SDS011;1335;48.180;16.342;2023-06-22T03:33:53;11.10;;;7.90;;
2650;SDS011;1335;48.180;16.342;2023-06-22T03:36:21;9.10;;;5.37;;
2650;SDS011;1335;48.180;16.342;2023-06-22T03:38:48;6.70;;;4.73;;
2650;SDS011;1335;48.180;16.342;2023-06-22T03:41:16;8.20;;;5.23;;
2650;SDS011;1335;48.180;16.342;2023-06-22T03:43:43;8.40;;;6.40;;
2650;SDS011;1335;48.180;16.342;2023-06-22T03:46:11;6.53;;;5.87;;
2650;SDS011;1335;48.180;16.342;2023-06-22T03:48:39;7.20;;;6.10;;
2650;SDS011;1335;48.180;16.342;2023-06-22T03:51:07;10.10;;;5.20;;
2650;SDS011;1335;48.180;16.342;2023-06-22T03:53:34;7.03;;;4.87;;
2650;SDS011;1335;48.180;16.342;2023-06-22T03:56:02;7.07;;;4.67;;
2650;SDS011;1335;48.180;16.342;2023-06-22T03:58:29;7.60;;;4.87;;
2650;SDS011;1335;48.180;16.342;2023-06-22T04:00:58;9.37;;;4.97;;
2650;SDS011;1335;48.180;16.342;2023-06-22T04:03:26;6.83;;;4.87;;
2650;SDS011;1335;48.180;16.342;2023-06-22T04:05:54;8.70;;;5.23;;
2650;SDS011;1335;48.180;16.342;2023-06-22T04:08:22;7.93;;;5.40;;
2650;SDS011;1335;48.180;16.342;2023-06-22T04:10:49;10.87;;;5.57;;
2650;SDS011;1335;48.180;16.342;2023-06-22T04:13:16;9.33;;;5.47;;
2650;SDS011;1335;48.180;16.342;2023-06-22T04:15:43;5.67;;;4.50;;
2650;SDS011;1335;48.180;16.342;2023-06-22T04:18:11;6.40;;;5.10;;
2650;SDS011;1335;48.180;16.342;2023-06-22T04:20:38;7.80;;;5.33;;
2650;SDS011;1335;48.180;16.342;2023-06-22T04:23:07;6.20;;;5.00;;
2650;SDS011;1335;48.180;16.342;2023-06-22T04:25:34;7.87;;;5.63;;
2650;SDS011;1335;48.180;16.342;2023-06-22T04:28:01;5.73;;;4.50;;
2650;SDS011;1335;48.180;16.342;2023-06-22T04:30:29;6.90;;;4.27;;
2650;SDS011;1335;48.180;16.342;2023-06-22T04:32:57;6.83;;;5.80;;
2650;SDS011;1335;48.180;16.342;2023-06-22T04:35:25;6.63;;;5.30;;
2650;SDS011;1335;48.180;16.342;2023-06-22T04:37:53;5.47;;;4.97;;
2650;SDS011;1335;48.180;16.342;2023-06-22T04:40:22;10.43;;;5.73;;
2650;SDS011;1335;48.180;16.342;2023-06-22T04:42:50;10.30;;;5.93;;
2650;SDS011;1335;48.180;16.342;2023-06-22T04:45:20;8.73;;;5.53;;
2650;SDS011;1335;48.180;16.342;2023-06-22T04:47:47;6.37;;;5.50;;
2650;SDS011;1335;48.180;16.342;2023-06-22T04:50:14;8.47;;;5.17;;
2650;SDS011;1335;48.180;16.342;2023-06-22T04:52:42;8.27;;;5.27;;
2650;SDS011;1335;48.180;16.342;2023-06-22T04:55:10;5.73;;;5.23;;
2650;SDS011;1335;48.180;16.342;2023-06-22T04:57:39;9.30;;;5.20;;
2650;SDS011;1335;48.180;16.342;2023-06-22T05:00:10;10.87;;;5.30;;
2650;SDS011;1335;48.180;16.342;2023-06-22T05:02:38;9.03;;;5.77;;
2650;SDS011;1335;48.180;16.342;2023-06-22T05:05:06;8.70;;;6.40;;
2650;SDS011;1335;48.180;16.342;2023-06-22T05:07:33;10.43;;;5.70;;
2650;SDS011;1335;48.180;16.342;2023-06-22T05:10:00;7.83;;;5.80;;
2650;SDS011;1335;48.180;16.342;2023-06-22T05:12:28;7.90;;;5.10;;
2650;SDS011;1335;48.180;16.342;2023-06-22T05:14:56;5.10;;;4.50;;
2650;SDS011;1335;48.180;16.342;2023-06-22T05:17:24;11.53;;;4.77;;
2650;SDS011;1335;48.180;16.342;2023-06-22T05:19:51;13.53;;;5.50;;
2650;SDS011;1335;48.180;16.342;2023-06-22T05:22:20;10.60;;;5.47;;
2650;SDS011;1335;48.180;16.342;2023-06-22T05:24:47;10.23;;;5.30;;
2650;SDS011;1335;48.180;16.342;2023-06-22T05:27:14;9.20;;;5.60;;
2650;SDS011;1335;48.180;16.342;2023-06-22T05:29:41;11.00;;;5.33;;
2650;SDS011;1335;48.180;16.342;2023-06-22T05:32:10;9.00;;;6.00;;
2650;SDS011;1335;48.180;16.342;2023-06-22T05:34:38;9.80;;;5.03;;
2650;SDS011;1335;48.180;16.342;2023-06-22T05:37:05;6.50;;;3.93;;
2650;SDS011;1335;48.180;16.342;2023-06-22T05:39:34;6.90;;;4.60;;
2650;SDS011;1335;48.180;16.342;2023-06-22T05:42:04;5.73;;;4.43;;
2650;SDS011;1335;48.180;16.342;2023-06-22T05:44:31;9.33;;;4.73;;
2650;SDS011;1335;48.180;16.342;2023-06-22T05:46:59;9.53;;;4.93;;
2650;SDS011;1335;48.180;16.342;2023-06-22T05:49:29;8.30;;;5.17;;
2650;SDS011;1335;48.180;16.342;2023-06-22T05:51:57;10.27;;;5.00;;
2650;SDS011;1335;48.180;16.342;2023-06-22T05:54:27;8.07;;;4.33;;
2650;SDS011;1335;48.180;16.342;2023-06-22T05:56:54;12.30;;;5.23;;
2650;SDS011;1335;48.180;16.342;2023-06-22T05:59:21;14.43;;;5.70;;
2650;SDS011;1335;48.180;16.342;2023-06-22T06:01:49;9.13;;;5.83;;
2650;SDS011;1335;48.180;16.342;2023-06-22T06:04:16;9.30;;;5.60;;
2650;SDS011;1335;48.180;16.342;2023-06-22T06:06:45;9.80;;;5.80;;
2650;SDS011;1335;48.180;16.342;2023-06-22T06:09:13;7.87;;;5.33;;
2650;SDS011;1335;48.180;16.342;2023-06-22T06:11:40;8.67;;;5.10;;
2650;SDS011;1335;48.180;16.342;2023-06-22T06:14:08;10.73;;;5.47;;
2650;SDS011;1335;48.180;16.342;2023-06-22T06:16:35;11.60;;;6.30;;
2650;SDS011;1335;48.180;16.342;2023-06-22T06:19:02;9.53;;;6.93;;
2650;SDS011;1335;48.180;16.342;2023-06-22T06:21:29;13.60;;;6.90;;
2650;SDS011;1335;48.180;16.342;2023-06-22T06:23:58;10.23;;;6.40;;
2650;SDS011;1335;48.180;16.342;2023-06-22T06:26:25;10.13;;;5.80;;
2650;SDS011;1335;48.180;16.342;2023-06-22T06:28:55;15.10;;;7.00;;
2650;SDS011;1335;48.180;16.342;2023-06-22T06:31:22;14.13;;;6.77;;
2650;SDS011;1335;48.180;16.342;2023-06-22T06:33:52;9.83;;;6.23;;
2650;SDS011;1335;48.180;16.342;2023-06-22T06:36:20;11.07;;;6.47;;
2650;SDS011;1335;48.180;16.342;2023-06-22T06:38:47;11.13;;;7.53;;
2650;SDS011;1335;48.180;16.342;2023-06-22T06:41:16;8.20;;;6.30;;
2650;SDS011;1335;48.180;16.342;2023-06-22T06:43:43;8.23;;;6.37;;
2650;SDS011;1335;48.180;16.342;2023-06-22T06:46:10;10.00;;;6.87;;
2650;SDS011;1335;48.180;16.342;2023-06-22T06:48:37;10.40;;;8.60;;
2650;SDS011;1335;48.180;16.342;2023-06-22T06:51:05;10.63;;;8.17;;
2650;SDS011;1335;48.180;16.342;2023-06-22T06:53:34;11.57;;;7.00;;
2650;SDS011;1335;48.180;16.342;2023-06-22T06:56:01;12.90;;;8.87;;
2650;SDS011;1335;48.180;16.342;2023-06-22T06:58:31;14.13;;;8.00;;
2650;SDS011;1335;48.180;16.342;2023-06-22T07:00:59;13.10;;;9.30;;
2650;SDS011;1335;48.180;16.342;2023-06-22T07:03:26;9.90;;;7.57;;
2650;SDS011;1335;48.180;16.342;2023-06-22T07:05:53;16.57;;;11.07;;
2650;SDS011;1335;48.180;16.342;2023-06-22T07:08:20;13.43;;;12.03;;
2650;SDS011;1335;48.180;16.342;2023-06-22T07:10:47;12.87;;;11.57;;
2650;SDS011;1335;48.180;16.342;2023-06-22T07:13:15;16.40;;;12.43;;
2650;SDS011;1335;48.180;16.342;2023-06-22T07:15:43;14.53;;;11.80;;
2650;SDS011;1335;48.180;16.342;2023-06-22T07:18:11;19.73;;;12.97;;
2650;SDS011;1335;48.180;16.342;2023-06-22T07:20:38;16.53;;;12.67;;
2650;SDS011;1335;48.180;16.342;2023-06-22T07:23:06;15.90;;;14.30;;
2650;SDS011;1335;48.180;16.342;2023-06-22T07:25:33;22.80;;;12.70;;
2650;SDS011;1335;48.180;16.342;2023-06-22T07:28:01;13.80;;;12.40;;
2650;SDS011;1335;48.180;16.342;2023-06-22T07:30:28;10.50;;;9.70;;
2650;SDS011;1335;48.180;16.342;2023-06-22T07:32:57;15.60;;;12.17;;
2650;SDS011;1335;48.180;16.342;2023-06-22T07:35:28;11.63;;;10.43;;
2650;SDS011;1335;48.180;16.342;2023-06-22T07:37:55;12.70;;;10.57;;
2650;SDS011;1335;48.180;16.342;2023-06-22T07:40:22;12.40;;;10.00;;
2650;SDS011;1335;48.180;16.342;2023-06-22T07:42:50;13.33;;;10.33;;
2650;SDS011;1335;48.180;16.342;2023-06-22T07:45:18;12.97;;;9.30;;
2650;SDS011;1335;48.180;16.342;2023-06-22T07:47:46;9.97;;;8.97;;
2650;SDS011;1335;48.180;16.342;2023-06-22T07:50:14;11.83;;;10.37;;
2650;SDS011;1335;48.180;16.342;2023-06-22T07:52:41;17.83;;;11.17;;
2650;SDS011;1335;48.180;16.342;2023-06-22T07:55:09;12.53;;;10.63;;
2650;SDS011;1335;48.180;16.342;2023-06-22T07:57:36;13.23;;;11.73;;
2650;SDS011;1335;48.180;16.342;2023-06-22T08:00:04;16.10;;;13.03;;
2650;SDS011;1335;48.180;16.342;2023-06-22T08:02:37;12.73;;;11.13;;
2650;SDS011;1335;48.180;16.342;2023-06-22T08:05:04;13.67;;;11.57;;
2650;SDS011;1335;48.180;16.342;2023-06-22T08:07:34;11.73;;;10.60;;
2650;SDS011;1335;48.180;16.342;2023-06-22T08:10:03;13.50;;;12.00;;
2650;SDS011;1335;48.180;16.342;2023-06-22T08:12:30;13.67;;;11.20;;
2650;SDS011;1335;48.180;16.342;2023-06-22T08:14:58;19.23;;;13.30;;
2650;SDS011;1335;48.180;16.342;2023-06-22T08:17:26;12.37;;;11.07;;
2650;SDS011;1335;48.180;16.342;2023-06-22T08:19:53;13.50;;;10.33;;
2650;SDS011;1335;48.180;16.342;2023-06-22T08:22:21;17.73;;;11.50;;
2650;SDS011;1335;48.180;16.342;2023-06-22T08:24:50;13.27;;;11.00;;
2650;SDS011;1335;48.180;16.342;2023-06-22T08:27:18;16.70;;;11.43;;
2650;SDS011;1335;48.180;16.342;2023-06-22T08:29:46;12.37;;;11.10;;
2650;SDS011;1335;48.180;16.342;2023-06-22T08:32:15;13.87;;;10.33;;
2650;SDS011;1335;48.180;16.342;2023-06-22T08:34:42;14.23;;;10.60;;
2650;SDS011;1335;48.180;16.342;2023-06-22T08:37:10;13.37;;;11.03;;
2650;SDS011;1335;48.180;16.342;2023-06-22T08:39:37;11.73;;;9.63;;
2650;SDS011;1335;48.180;16.342;2023-06-22T08:42:07;13.40;;;10.20;;
2650;SDS011;1335;48.180;16.342;2023-06-22T08:44:34;11.70;;;10.50;;
2650;SDS011;1335;48.180;16.342;2023-06-22T08:47:02;13.63;;;10.57;;
2650;SDS011;1335;48.180;16.342;2023-06-22T08:49:29;10.73;;;9.70;;
2650;SDS011;1335;48.180;16.342;2023-06-22T08:51:57;13.63;;;10.50;;
2650;SDS011;1335;48.180;16.342;2023-06-22T08:54:24;11.17;;;9.37;;
2650;SDS011;1335;48.180;16.342;2023-06-22T08:56:52;15.40;;;11.90;;
2650;SDS011;1335;48.180;16.342;2023-06-22T08:59:20;13.70;;;10.87;;
2650;SDS011;1335;48.180;16.342;2023-06-22T09:01:48;12.33;;;9.90;;
2650;SDS011;1335;48.180;16.342;2023-06-22T09:04:15;13.30;;;9.90;;
2650;SDS011;1335;48.180;16.342;2023-06-22T09:06:43;14.50;;;10.00;;
2650;SDS011;1335;48.180;16.342;2023-06-22T09:09:11;11.80;;;9.40;;
2650;SDS011;1335;48.180;16.342;2023-06-22T09:11:39;10.73;;;9.60;;
2650;SDS011;1335;48.180;16.342;2023-06-22T09:14:06;11.03;;;9.87;;
2650;SDS011;1335;48.180;16.342;2023-06-22T09:16:35;13.90;;;10.33;;
2650;SDS011;1335;48.180;16.342;2023-06-22T09:19:02;10.80;;;9.70;;
2650;SDS011;1335;48.180;16.342;2023-06-22T09:21:30;12.20;;;8.90;;
2650;SDS011;1335;48.180;16.342;2023-06-22T09:23:57;16.43;;;9.73;;
2650;SDS011;1335;48.180;16.342;2023-06-22T09:26:24;11.67;;;9.80;;
2650;SDS011;1335;48.180;16.342;2023-06-22T09:28:51;11.27;;;10.17;;
2650;SDS011;1335;48.180;16.342;2023-06-22T09:31:19;12.33;;;9.37;;
2650;SDS011;1335;48.180;16.342;2023-06-22T09:33:52;10.17;;;9.07;;
2650;SDS011;1335;48.180;16.342;2023-06-22T09:36:20;12.40;;;9.30;;
2650;SDS011;1335;48.180;16.342;2023-06-22T09:38:47;12.20;;;9.57;;
2650;SDS011;1335;48.180;16.342;2023-06-22T09:41:20;11.27;;;8.90;;
2650;SDS011;1335;48.180;16.342;2023-06-22T09:43:48;13.10;;;9.20;;
2650;SDS011;1335;48.180;16.342;2023-06-22T09:46:15;13.20;;;9.30;;
2650;SDS011;1335;48.180;16.342;2023-06-22T09:48:42;12.30;;;9.10;;
2650;SDS011;1335;48.180;16.342;2023-06-22T09:51:11;12.10;;;9.30;;
2650;SDS011;1335;48.180;16.342;2023-06-22T09:53:38;10.57;;;8.90;;
2650;SDS011;1335;48.180;16.342;2023-06-22T09:56:05;12.87;;;9.70;;
2650;SDS011;1335;48.180;16.342;2023-06-22T09:58:36;10.67;;;9.40;;
2650;SDS011;1335;48.180;16.342;2023-06-22T10:01:03;15.17;;;9.40;;
2650;SDS011;1335;48.180;16.342;2023-06-22T10:03:30;9.67;;;8.00;;
2650;SDS011;1335;48.180;16.342;2023-06-22T10:05:58;9.90;;;8.87;;
2650;SDS011;1335;48.180;16.342;2023-06-22T10:08:26;12.43;;;9.67;;
2650;SDS011;1335;48.180;16.342;2023-06-22T10:10:54;9.30;;;7.63;;
2650;SDS011;1335;48.180;16.342;2023-06-22T10:13:21;10.93;;;7.60;;
2650;SDS011;1335;48.180;16.342;2023-06-22T10:15:48;8.40;;;6.90;;
2650;SDS011;1335;48.180;16.342;2023-06-22T10:18:17;11.40;;;8.50;;
2650;SDS011;1335;48.180;16.342;2023-06-22T10:20:45;9.70;;;7.30;;
2650;SDS011;1335;48.180;16.342;2023-06-22T10:23:12;9.73;;;7.50;;
2650;SDS011;1335;48.180;16.342;2023-06-22T10:25:41;10.03;;;6.30;;
2650;SDS011;1335;48.180;16.342;2023-06-22T10:28:08;10.40;;;7.20;;
2650;SDS011;1335;48.180;16.342;2023-06-22T10:30:35;11.07;;;7.53;;
2650;SDS011;1335;48.180;16.342;2023-06-22T10:33:02;8.00;;;6.70;;
2650;SDS011;1335;48.180;16.342;2023-06-22T10:35:30;6.83;;;5.67;;
2650;SDS011;1335;48.180;16.342;2023-06-22T10:37:57;7.77;;;5.43;;
2650;SDS011;1335;48.180;16.342;2023-06-22T10:40:25;8.17;;;5.17;;
2650;SDS011;1335;48.180;16.342;2023-06-22T10:42:53;9.07;;;4.90;;
2650;SDS011;1335;48.180;16.342;2023-06-22T10:45:20;6.97;;;5.20;;
2650;SDS011;1335;48.180;16.342;2023-06-22T10:47:48;6.17;;;4.70;;
2650;SDS011;1335;48.180;16.342;2023-06-22T10:50:15;7.17;;;4.37;;
2650;SDS011;1335;48.180;16.342;2023-06-22T10:52:42;8.13;;;5.50;;
2650;SDS011;1335;48.180;16.342;2023-06-22T10:55:10;8.20;;;4.90;;
2650;SDS011;1335;48.180;16.342;2023-06-22T10:57:37;5.50;;;3.80;;
2650;SDS011;1335;48.180;16.342;2023-06-22T11:00:10;9.03;;;5.03;;
2650;SDS011;1335;48.180;16.342;2023-06-22T11:02:37;6.60;;;4.50;;
2650;SDS011;1335;48.180;16.342;2023-06-22T11:05:05;7.47;;;4.70;;
2650;SDS011;1335;48.180;16.342;2023-06-22T11:07:32;9.30;;;5.00;;
2650;SDS011;1335;48.180;16.342;2023-06-22T11:09:59;8.67;;;5.10;;
2650;SDS011;1335;48.180;16.342;2023-06-22T11:12:27;8.33;;;5.10;;
2650;SDS011;1335;48.180;16.342;2023-06-22T11:14:54;6.03;;;5.40;;
2650;SDS011;1335;48.180;16.342;2023-06-22T11:17:23;8.00;;;6.00;;
2650;SDS011;1335;48.180;16.342;2023-06-22T11:19:51;6.50;;;5.50;;
2650;SDS011;1335;48.180;16.342;2023-06-22T11:22:18;6.73;;;6.13;;
2650;SDS011;1335;48.180;16.342;2023-06-22T11:24:45;7.10;;;6.33;;
2650;SDS011;1335;48.180;16.342;2023-06-22T11:27:12;13.97;;;7.10;;
2650;SDS011;1335;48.180;16.342;2023-06-22T11:29:40;8.73;;;7.00;;
2650;SDS011;1335;48.180;16.342;2023-06-22T11:32:07;8.00;;;7.10;;
2650;SDS011;1335;48.180;16.342;2023-06-22T11:34:36;9.53;;;7.10;;
2650;SDS011;1335;48.180;16.342;2023-06-22T11:37:03;11.73;;;5.67;;
2650;SDS011;1335;48.180;16.342;2023-06-22T11:39:30;10.23;;;6.13;;
2650;SDS011;1335;48.180;16.342;2023-06-22T11:41:57;7.87;;;5.50;;
2650;SDS011;1335;48.180;16.342;2023-06-22T11:44:25;8.27;;;5.33;;
2650;SDS011;1335;48.180;16.342;2023-06-22T11:46:52;12.60;;;5.80;;
2650;SDS011;1335;48.180;16.342;2023-06-22T11:49:19;7.53;;;4.63;;
2650;SDS011;1335;48.180;16.342;2023-06-22T11:51:48;9.17;;;5.23;;
2650;SDS011;1335;48.180;16.342;2023-06-22T11:54:15;9.50;;;4.50;;
2650;SDS011;1335;48.180;16.342;2023-06-22T11:56:42;8.07;;;4.30;;
2650;SDS011;1335;48.180;16.342;2023-06-22T11:59:10;7.80;;;4.70;;
2650;SDS011;1335;48.180;16.342;2023-06-22T12:01:37;6.47;;;4.70;;
2650;SDS011;1335;48.180;16.342;2023-06-22T12:04:04;7.03;;;5.10;;
2650;SDS011;1335;48.180;16.342;2023-06-22T12:06:32;7.93;;;4.60;;
2650;SDS011;1335;48.180;16.342;2023-06-22T12:09:03;7.60;;;4.87;;
2650;SDS011;1335;48.180;16.342;2023-06-22T12:11:30;12.77;;;4.47;;
2650;SDS011;1335;48.180;16.342;2023-06-22T12:13:58;8.67;;;5.23;;
2650;SDS011;1335;48.180;16.342;2023-06-22T12:16:26;10.27;;;5.17;;
2650;SDS011;1335;48.180;16.342;2023-06-22T12:18:54;6.43;;;4.57;;
2650;SDS011;1335;48.180;16.342;2023-06-22T12:21:21;7.60;;;4.90;;
2650;SDS011;1335;48.180;16.342;2023-06-22T12:23:48;9.53;;;4.80;;
2650;SDS011;1335;48.180;16.342;2023-06-22T12:26:17;5.67;;;4.53;;
2650;SDS011;1335;48.180;16.342;2023-06-22T12:28:44;8.93;;;4.20;;
2650;SDS011;1335;48.180;16.342;2023-06-22T12:31:11;8.23;;;5.23;;
2650;SDS011;1335;48.180;16.342;2023-06-22T12:33:38;12.90;;;4.93;;
2650;SDS011;1335;48.180;16.342;2023-06-22T12:36:06;5.03;;;4.30;;
2650;SDS011;1335;48.180;16.342;2023-06-22T12:38:34;4.57;;;4.17;;
2650;SDS011;1335;48.180;16.342;2023-06-22T12:41:01;11.33;;;4.90;;
2650;SDS011;1335;48.180;16.342;2023-06-22T12:43:29;8.97;;;4.90;;
2650;SDS011;1335;48.180;16.342;2023-06-22T12:45:57;6.47;;;4.77;;
2650;SDS011;1335;48.180;16.342;2023-06-22T12:48:25;11.13;;;5.50;;
2650;SDS011;1335;48.180;16.342;2023-06-22T12:50:52;9.50;;;5.50;;
2650;SDS011;1335;48.180;16.342;2023-06-22T12:53:19;9.93;;;5.27;;
2650;SDS011;1335;48.180;16.342;2023-06-22T12:55:48;8.77;;;5.90;;
2650;SDS011;1335;48.180;16.342;2023-06-22T12:58:15;9.20;;;5.57;;
2650;SDS011;1335;48.180;16.342;2023-06-22T13:00:44;7.73;;;6.03;;
2650;SDS011;1335;48.180;16.342;2023-06-22T13:03:11;12.23;;;5.77;;
2650;SDS011;1335;48.180;16.342;2023-06-22T13:05:39;9.23;;;5.57;;
2650;SDS011;1335;48.180;16.342;2023-06-22T13:08:06;7.33;;;5.10;;
2650;SDS011;1335;48.180;16.342;2023-06-22T13:10:33;7.77;;;5.40;;
2650;SDS011;1335;48.180;16.342;2023-06-22T13:13:01;12.40;;;6.23;;
2650;SDS011;1335;48.180;16.342;2023-06-22T13:15:28;9.00;;;5.87;;
2650;SDS011;1335;48.180;16.342;2023-06-22T13:17:57;10.70;;;5.20;;
2650;SDS011;1335;48.180;16.342;2023-06-22T13:20:24;6.33;;;5.73;;
2650;SDS011;1335;48.180;16.342;2023-06-22T13:22:53;6.63;;;5.30;;
2650;SDS011;1335;48.180;16.342;2023-06-22T13:25:21;7.40;;;5.50;;
2650;SDS011;1335;48.180;16.342;2023-06-22T13:27:51;6.23;;;5.50;;
2650;SDS011;1335;48.180;16.342;2023-06-22T13:30:18;6.37;;;5.77;;
2650;SDS011;1335;48.180;16.342;2023-06-22T13:32:45;7.03;;;5.87;;
2650;SDS011;1335;48.180;16.342;2023-06-22T13:35:14;11.17;;;6.27;;
2650;SDS011;1335;48.180;16.342;2023-06-22T13:37:41;13.20;;;6.17;;
2650;SDS011;1335;48.180;16.342;2023-06-22T13:40:09;9.07;;;6.30;;
2650;SDS011;1335;48.180;16.342;2023-06-22T13:42:36;6.63;;;5.80;;
2650;SDS011;1335;48.180;16.342;2023-06-22T13:45:04;8.33;;;5.80;;
2650;SDS011;1335;48.180;16.342;2023-06-22T13:47:31;8.33;;;5.57;;
2650;SDS011;1335;48.180;16.342;2023-06-22T13:49:58;9.00;;;5.50;;
2650;SDS011;1335;48.180;16.342;2023-06-22T13:52:27;9.33;;;6.20;;
2650;SDS011;1335;48.180;16.342;2023-06-22T13:54:54;14.47;;;6.70;;
2650;SDS011;1335;48.180;16.342;2023-06-22T13:57:21;9.53;;;6.03;;
2650;SDS011;1335;48.180;16.342;2023-06-22T13:59:48;12.30;;;5.43;;
2650;SDS011;1335;48.180;16.342;2023-06-22T14:02:16;8.73;;;6.43;;
2650;SDS011;1335;48.180;16.342;2023-06-22T14:04:43;9.97;;;6.00;;
2650;SDS011;1335;48.180;16.342;2023-06-22T14:07:10;8.67;;;5.43;;
2650;SDS011;1335;48.180;16.342;2023-06-22T14:09:39;8.50;;;5.90;;
2650;SDS011;1335;48.180;16.342;2023-06-22T14:12:06;9.80;;;6.47;;
2650;SDS011;1335;48.180;16.342;2023-06-22T14:14:34;8.93;;;5.80;;
2650;SDS011;1335;48.180;16.342;2023-06-22T14:17:01;9.43;;;5.43;;
2650;SDS011;1335;48.180;16.342;2023-06-22T14:19:29;12.13;;;6.73;;
2650;SDS011;1335;48.180;16.342;2023-06-22T14:21:56;9.03;;;5.77;;
2650;SDS011;1335;48.180;16.342;2023-06-22T14:24:23;10.03;;;5.80;;
2650;SDS011;1335;48.180;16.342;2023-06-22T14:26:52;10.17;;;6.10;;
2650;SDS011;1335;48.180;16.342;2023-06-22T14:29:19;9.27;;;5.10;;
2650;SDS011;1335;48.180;16.342;2023-06-22T14:31:46;10.97;;;5.90;;
2650;SDS011;1335;48.180;16.342;2023-06-22T14:34:14;8.30;;;6.10;;
2650;SDS011;1335;48.180;16.342;2023-06-22T14:36:41;7.10;;;6.50;;
2650;SDS011;1335;48.180;16.342;2023-06-22T14:39:09;10.37;;;5.73;;
2650;SDS011;1335;48.180;16.342;2023-06-22T14:41:36;9.60;;;6.23;;
2650;SDS011;1335;48.180;16.342;2023-06-22T14:44:05;12.77;;;7.30;;
2650;SDS011;1335;48.180;16.342;2023-06-22T14:46:32;8.40;;;6.03;;
2650;SDS011;1335;48.180;16.342;2023-06-22T14:48:59;12.47;;;6.20;;
2650;SDS011;1335;48.180;16.342;2023-06-22T14:51:27;9.80;;;6.40;;
2650;SDS011;1335;48.180;16.342;2023-06-22T14:53:54;9.60;;;6.00;;
2650;SDS011;1335;48.180;16.342;2023-06-22T14:56:21;9.20;;;6.30;;
2650;SDS011;1335;48.180;16.342;2023-06-22T14:58:48;15.77;;;7.27;;